Time;durP1;ratioP1;P1;durP2;ratioP2;P2;SDS_P1;SDS_P2;PMS_P1;PMS_P2;Temp;Humidity;BMP_temperature;BMP_pressure;BME280_temperature;BME280_humidity;BME280_pressure;Samples;Min_cycle;Max_cycle;Signal;HPM_P1;HPM_P2
2024/03/13 00:02:14;;;;;;;67.55;32.50;;;6.20;99.90;;;;;;5094815;28;20044;-67
2024/03/13 00:04:43;;;;;;;71.78;35.08;;;6.20;99.90;;;;;;5095244;28;20051;-67
2024/03/13 00:07:19;;;;;;;67.38;34.33;;;6.00;99.90;;;;;;5095254;28;20043;-67
2024/03/13 00:09:50;;;;;;;68.35;35.40;;;6.10;99.90;;;;;;5095145;28;20046;-67
2024/03/13 00:12:17;;;;;;;73.97;36.28;;;6.00;99.90;;;;;;5094568;28;20098;-68
2024/03/13 00:14:49;;;;;;;68.70;35.72;;;6.10;99.90;;;;;;5095142;28;20067;-68
2024/03/13 00:17:19;;;;;;;67.50;35.35;;;6.00;99.90;;;;;;5095201;28;20458;-68
2024/03/13 00:19:49;;;;;;;68.38;37.58;;;6.10;99.90;;;;;;5095135;28;20043;-68
2024/03/13 00:22:18;;;;;;;75.18;38.97;;;6.10;99.90;;;;;;5094365;28;20079;-67
2024/03/13 00:24:48;;;;;;;76.95;36.55;;;6.00;99.90;;;;;;5094952;28;20132;-67
2024/03/13 00:27:16;;;;;;;69.22;34.28;;;6.00;99.90;;;;;;5076667;28;20074;-67
2024/03/13 00:29:46;;;;;;;69.80;36.55;;;6.10;99.90;;;;;;5094480;28;20127;-68
2024/03/13 00:32:12;;;;;;;70.95;35.53;;;5.90;99.90;;;;;;5094344;28;20123;-68
2024/03/13 00:34:39;;;;;;;70.25;33.53;;;6.00;99.90;;;;;;5094734;28;20650;-67
2024/03/13 00:37:05;;;;;;;64.05;32.65;;;6.00;99.90;;;;;;5094811;28;20035;-68
2024/03/13 00:39:31;;;;;;;70.68;36.15;;;6.00;99.90;;;;;;5094507;28;20052;-67
2024/03/13 00:41:56;;;;;;;70.38;32.65;;;5.90;99.90;;;;;;5094242;28;20121;-68
2024/03/13 00:44:25;;;;;;;71.25;33.75;;;6.00;99.90;;;;;;5094526;28;20102;-66
2024/03/13 00:46:50;;;;;;;71.57;33.03;;;6.00;99.90;;;;;;5094654;28;20046;-67
2024/03/13 00:49:17;;;;;;;74.15;35.28;;;6.10;99.90;;;;;;5094276;28;20685;-67
2024/03/13 00:51:44;;;;;;;77.97;39.35;;;6.10;99.90;;;;;;5075719;28;20048;-67
2024/03/13 00:54:10;;;;;;;72.53;37.13;;;6.10;99.90;;;;;;5094349;28;20040;-67
2024/03/13 00:56:36;;;;;;;64.13;35.97;;;6.20;99.90;;;;;;5094188;28;20407;-67
2024/03/13 00:59:02;;;;;;;77.95;35.95;;;6.00;99.90;;;;;;5094354;28;20036;-67
2024/03/13 01:01:28;;;;;;;69.18;35.92;;;6.20;99.90;;;;;;5093670;28;20115;-67
2024/03/13 01:04:00;;;;;;;66.45;34.40;;;6.20;99.90;;;;;;5094365;28;20096;-67
2024/03/13 01:06:29;;;;;;;70.30;34.88;;;6.20;99.90;;;;;;5094182;28;20044;-67
2024/03/13 01:08:56;;;;;;;74.78;34.95;;;6.20;99.90;;;;;;5093533;28;20122;-67
2024/03/13 01:11:22;;;;;;;75.82;34.20;;;6.40;99.90;;;;;;5093278;28;20560;-67
2024/03/13 01:13:47;;;;;;;67.93;32.38;;;6.40;99.90;;;;;;5094169;28;20119;-67
2024/03/13 01:16:13;;;;;;;71.50;32.72;;;6.30;99.90;;;;;;5075734;28;20036;-67
2024/03/13 01:18:39;;;;;;;74.65;34.90;;;6.30;99.90;;;;;;5093845;28;20036;-67
2024/03/13 01:21:04;;;;;;;81.60;35.63;;;6.30;99.90;;;;;;5093852;28;20040;-67
2024/03/13 01:23:31;;;;;;;73.15;34.75;;;6.30;99.90;;;;;;5093407;28;20465;-67
2024/03/13 01:25:59;;;;;;;75.22;35.25;;;6.40;99.90;;;;;;5093695;28;20040;-69
2024/03/13 01:28:25;;;;;;;74.20;34.55;;;6.40;99.90;;;;;;5093907;28;20036;-67
2024/03/13 01:30:50;;;;;;;71.05;33.25;;;6.40;99.90;;;;;;5093403;28;20577;-67
2024/03/13 01:33:16;;;;;;;76.10;35.08;;;6.40;99.90;;;;;;5093199;28;20510;-67
2024/03/13 01:35:42;;;;;;;68.30;32.25;;;6.50;99.90;;;;;;5093541;28;20043;-67
2024/03/13 01:38:08;;;;;;;72.47;34.90;;;6.50;99.90;;;;;;5093689;28;20115;-66
2024/03/13 01:54:52;;;;;;;75.07;36.22;;;6.60;99.90;;;;;;5093299;28;20044;-68
2024/03/13 01:57:28;;;;;;;73.83;32.07;;;6.60;99.90;;;;;;5093181;28;20040;-68
2024/03/13 02:02:44;;;;;;;76.00;33.53;;;6.60;99.90;;;;;;5092637;28;20458;-68
2024/03/13 02:05:10;;;;;;;68.45;32.33;;;6.50;99.90;;;;;;5092489;28;20040;-68
2024/03/13 02:07:36;;;;;;;77.13;33.75;;;6.60;99.90;;;;;;5092824;28;20039;-66
2024/03/13 02:10:04;;;;;;;66.57;33.40;;;6.70;99.90;;;;;;5074537;28;20094;-67
2024/03/13 02:12:30;;;;;;;80.80;34.33;;;6.70;99.90;;;;;;5092459;28;20578;-67
2024/03/13 02:14:55;;;;;;;76.95;33.63;;;6.70;99.90;;;;;;5092918;28;20111;-67
2024/03/13 02:17:21;;;;;;;77.35;34.30;;;6.80;99.90;;;;;;5092845;28;20063;-67
2024/03/13 02:19:48;;;;;;;72.32;33.90;;;6.80;99.90;;;;;;5092557;28;20389;-67
2024/03/13 02:22:14;;;;;;;74.63;33.78;;;6.70;99.90;;;;;;5091893;28;20089;-67
2024/03/13 02:24:40;;;;;;;70.97;34.20;;;6.70;99.90;;;;;;5092833;28;20055;-67
2024/03/13 02:27:12;;;;;;;69.35;34.97;;;6.70;99.90;;;;;;5092719;28;20035;-67
2024/03/13 02:29:46;;;;;;;66.72;33.25;;;6.70;99.90;;;;;;5092224;28;20101;-67
2024/03/13 02:32:12;;;;;;;76.53;35.03;;;6.70;99.90;;;;;;5091952;28;20092;-67
2024/03/13 02:34:41;;;;;;;72.97;31.88;;;6.80;99.90;;;;;;5092356;28;20032;-67
2024/03/13 02:37:07;;;;;;;72.03;33.60;;;6.70;99.90;;;;;;5092563;28;20115;-67
2024/03/13 02:39:32;;;;;;;71.32;33.50;;;6.80;99.90;;;;;;5092231;28;20082;-67
2024/03/13 02:41:58;;;;;;;77.95;33.85;;;6.80;99.90;;;;;;5091878;28;20059;-67
2024/03/13 02:44:23;;;;;;;73.20;32.55;;;6.80;99.90;;;;;;5092290;28;20110;-67
2024/03/13 02:46:49;;;;;;;69.35;33.13;;;6.80;99.90;;;;;;5092230;28;20032;-67
2024/03/13 02:49:15;;;;;;;76.22;33.58;;;6.80;99.90;;;;;;5073912;28;20040;-67
2024/03/13 02:51:41;;;;;;;69.78;33.88;;;6.80;99.90;;;;;;5073440;28;20605;-67
2024/03/13 02:54:08;;;;;;;79.30;36.47;;;6.80;99.90;;;;;;5092342;28;20044;-67
2024/03/13 02:56:34;;;;;;;76.07;34.72;;;6.80;99.90;;;;;;5092249;28;20047;-67
2024/03/13 02:58:59;;;;;;;69.63;33.20;;;6.80;99.90;;;;;;5091734;28;20520;-67
2024/03/13 03:01:26;;;;;;;72.40;34.83;;;6.70;99.90;;;;;;5091566;28;20042;-67
2024/03/13 03:03:52;;;;;;;80.68;35.05;;;6.80;99.90;;;;;;5091918;28;20047;-67
2024/03/13 03:06:17;;;;;;;75.78;33.95;;;6.70;99.90;;;;;;5091911;28;20445;-68
2024/03/13 03:08:44;;;;;;;73.53;32.20;;;6.80;99.90;;;;;;5091725;28;20073;-67
2024/03/13 03:11:10;;;;;;;70.75;33.50;;;6.70;99.90;;;;;;5074084;28;20036;-67
2024/03/13 03:13:38;;;;;;;74.15;33.28;;;6.70;99.90;;;;;;5095454;28;20107;-67
2024/03/13 03:16:10;;;;;;;73.28;36.83;;;6.80;99.90;;;;;;5077614;28;20124;-67
2024/03/13 03:18:36;;;;;;;76.72;34.40;;;6.70;99.90;;;;;;5094483;28;20042;-68
2024/03/13 03:21:02;;;;;;;77.75;33.08;;;6.70;99.90;;;;;;5095625;28;20040;-67
2024/03/13 03:23:28;;;;;;;76.63;36.25;;;6.70;99.90;;;;;;5095638;28;20496;-68
2024/03/13 03:25:54;;;;;;;73.80;33.30;;;6.60;99.90;;;;;;5096687;28;20074;-68
2024/03/13 03:28:19;;;;;;;74.28;35.50;;;6.80;99.90;;;;;;5106190;28;20051;-67
2024/03/13 03:30:48;;;;;;;73.00;34.47;;;6.80;99.90;;;;;;5097502;28;20037;-67
2024/03/13 03:33:14;;;;;;;73.50;33.42;;;6.80;99.90;;;;;;5090706;28;20126;-67
2024/03/13 03:35:40;;;;;;;71.32;32.85;;;6.80;99.90;;;;;;5091350;28;20086;-67
2024/03/13 03:38:05;;;;;;;67.80;33.90;;;6.80;99.90;;;;;;5089853;28;20028;-67
2024/03/13 03:40:35;;;;;;;67.43;32.97;;;6.70;99.90;;;;;;5091449;28;20048;-67
2024/03/13 03:43:01;;;;;;;77.18;34.17;;;6.80;99.90;;;;;;5091117;28;20101;-67
2024/03/13 03:45:26;;;;;;;71.82;33.30;;;6.70;99.90;;;;;;5091318;28;20036;-67
2024/03/13 03:47:52;;;;;;;73.03;33.58;;;6.80;99.90;;;;;;5091755;28;20036;-67
2024/03/13 03:50:18;;;;;;;70.88;31.58;;;6.90;99.90;;;;;;5091427;28;20449;-67
2024/03/13 03:52:47;;;;;;;64.00;31.67;;;6.80;99.90;;;;;;5090838;28;20115;-67
2024/03/13 03:55:17;;;;;;;71.68;31.83;;;6.80;99.90;;;;;;5091294;28;20500;-67
2024/03/13 03:57:43;;;;;;;67.63;31.65;;;6.80;99.90;;;;;;5091479;28;20086;-67
2024/03/13 04:00:11;;;;;;;64.68;30.77;;;6.90;99.90;;;;;;5073198;28;20048;-67
2024/03/13 04:02:37;;;;;;;67.57;32.40;;;6.80;99.90;;;;;;5090972;28;20048;-67
2024/03/13 04:05:06;;;;;;;67.00;35.28;;;6.90;99.90;;;;;;5091477;28;20043;-67
2024/03/13 04:07:33;;;;;;;67.22;32.65;;;6.90;99.90;;;;;;5091364;28;20419;-67
2024/03/13 04:09:58;;;;;;;67.03;32.10;;;6.90;99.90;;;;;;5091100;28;20408;-68
2024/03/13 04:12:24;;;;;;;61.05;30.50;;;7.00;99.90;;;;;;5090400;28;20028;-67
2024/03/13 04:14:50;;;;;;;83.18;34.13;;;7.00;99.90;;;;;;5091391;28;20071;-67
2024/03/13 04:17:17;;;;;;;65.57;31.20;;;7.00;99.90;;;;;;5091279;28;20040;-67
2024/03/13 04:19:43;;;;;;;65.15;29.45;;;7.00;99.90;;;;;;5091073;28;20051;-67
2024/03/13 04:22:09;;;;;;;70.05;31.48;;;7.00;99.90;;;;;;5090596;28;20040;-67
2024/03/13 04:24:35;;;;;;;67.20;31.30;;;7.00;99.90;;;;;;5091232;28;20047;-67
2024/03/13 04:27:01;;;;;;;64.18;31.70;;;7.00;99.90;;;;;;5072937;28;20139;-67
2024/03/13 04:29:26;;;;;;;60.67;31.25;;;7.00;99.90;;;;;;5092820;28;20067;-67
2024/03/13 04:31:52;;;;;;;67.47;30.10;;;7.00;99.90;;;;;;5094311;28;20040;-68
2024/03/13 04:34:18;;;;;;;62.80;30.00;;;7.00;99.90;;;;;;5094626;28;20036;-67
2024/03/13 04:36:45;;;;;;;59.72;27.65;;;7.00;99.90;;;;;;5094510;28;20066;-68
2024/03/13 04:39:11;;;;;;;68.28;29.15;;;7.00;99.90;;;;;;5094533;28;20116;-68
2024/03/13 04:41:39;;;;;;;62.08;29.30;;;7.00;99.90;;;;;;5094057;28;20119;-68
2024/03/13 04:44:09;;;;;;;54.30;26.85;;;7.20;99.90;;;;;;5094797;28;20040;-68
2024/03/13 04:46:35;;;;;;;64.75;30.85;;;7.10;99.90;;;;;;5094522;28;20411;-68
2024/03/13 04:49:00;;;;;;;65.75;28.88;;;7.00;99.90;;;;;;5094381;28;20036;-68
2024/03/13 04:51:26;;;;;;;64.53;29.60;;;7.10;99.90;;;;;;5093885;28;20040;-68
2024/03/13 04:53:52;;;;;;;66.80;30.00;;;7.00;99.90;;;;;;5094512;28;20542;-68
2024/03/13 04:56:18;;;;;;;57.05;28.55;;;7.10;99.90;;;;;;5094186;28;20115;-67
2024/03/13 04:58:44;;;;;;;60.65;28.83;;;7.10;99.90;;;;;;5094112;28;20036;-67
2024/03/13 05:01:19;;;;;;;59.10;28.27;;;7.20;99.90;;;;;;5094416;28;20067;-67
2024/03/13 05:03:45;;;;;;;69.10;29.33;;;7.10;99.90;;;;;;5094245;28;20040;-68
2024/03/13 05:06:11;;;;;;;59.33;30.35;;;7.20;99.90;;;;;;5094311;28;20404;-67
2024/03/13 05:08:37;;;;;;;56.45;29.25;;;7.20;99.90;;;;;;5093786;28;20047;-67
2024/03/13 05:11:03;;;;;;;62.53;27.95;;;7.20;99.90;;;;;;5094119;28;20408;-67
2024/03/13 05:13:28;;;;;;;57.40;28.80;;;7.20;99.90;;;;;;5093750;28;20044;-68
2024/03/13 05:15:54;;;;;;;62.63;28.67;;;7.20;99.90;;;;;;5094194;28;20039;-68
2024/03/13 05:18:20;;;;;;;60.13;29.33;;;7.20;99.90;;;;;;5093925;28;20517;-68
2024/03/13 05:20:46;;;;;;;59.33;28.67;;;7.30;99.90;;;;;;5093754;28;20039;-69
2024/03/13 05:23:11;;;;;;;61.50;29.02;;;7.10;99.90;;;;;;5098211;22;20045;-74
2024/03/13 05:25:37;;;;;;;62.67;28.70;;;7.30;99.90;;;;;;5073485;28;20123;-73
2024/03/13 05:28:03;;;;;;;64.75;31.23;;;7.30;99.90;;;;;;5072297;28;20544;-74
2024/03/13 05:30:29;;;;;;;59.97;27.90;;;7.30;99.90;;;;;;5073204;28;20075;-73
2024/03/13 05:32:56;;;;;;;65.25;28.95;;;7.30;99.90;;;;;;5071559;28;20044;-73
2024/03/13 05:35:22;;;;;;;57.40;27.63;;;7.30;99.90;;;;;;5055675;28;20036;-73
2024/03/13 05:37:47;;;;;;;65.22;27.27;;;7.40;99.90;;;;;;5073355;28;20496;-73
2024/03/13 05:40:16;;;;;;;60.55;27.63;;;7.30;99.90;;;;;;5070765;28;20499;-73
2024/03/13 05:42:42;;;;;;;71.15;29.73;;;7.20;99.90;;;;;;5072912;28;20511;-73
2024/03/13 05:45:13;;;;;;;64.63;29.17;;;7.40;99.90;;;;;;5071701;28;20037;-73
2024/03/13 05:47:40;;;;;;;67.13;29.13;;;7.30;99.90;;;;;;5071957;28;20503;-73
2024/03/13 05:50:08;;;;;;;56.08;27.85;;;7.30;99.90;;;;;;5071810;28;20036;-73
2024/03/13 05:52:33;;;;;;;65.20;29.15;;;7.20;99.90;;;;;;5054386;28;20048;-73
2024/03/13 05:55:01;;;;;;;62.70;28.52;;;7.20;99.90;;;;;;5071678;28;20028;-73
2024/03/13 05:57:27;;;;;;;61.47;28.80;;;7.30;99.90;;;;;;5071641;28;20047;-73
2024/03/13 05:59:53;;;;;;;59.88;28.00;;;7.30;99.90;;;;;;5071415;28;20032;-73
2024/03/13 06:02:18;;;;;;;64.55;29.48;;;7.30;99.90;;;;;;5070653;28;20053;-73
2024/03/13 06:04:45;;;;;;;67.22;29.15;;;7.40;99.90;;;;;;5072570;28;20063;-73
2024/03/13 06:07:11;;;;;;;68.57;30.25;;;7.40;99.90;;;;;;5072298;28;20549;-73
2024/03/13 06:09:37;;;;;;;62.33;29.65;;;7.40;99.90;;;;;;5072601;28;20036;-73
2024/03/13 06:12:03;;;;;;;60.95;29.58;;;7.40;99.90;;;;;;5072005;28;20066;-73
2024/03/13 06:14:29;;;;;;;59.60;28.25;;;7.40;99.90;;;;;;5071226;28;20045;-73
2024/03/13 06:16:54;;;;;;;73.63;31.45;;;7.50;99.90;;;;;;5072460;28;20036;-73
2024/03/13 06:19:20;;;;;;;62.25;28.75;;;7.60;99.90;;;;;;5071127;28;20392;-73
2024/03/13 06:21:46;;;;;;;69.07;29.20;;;7.40;99.90;;;;;;5070490;28;20072;-73
2024/03/13 06:24:12;;;;;;;68.03;32.13;;;7.50;99.90;;;;;;5072227;28;20051;-73
2024/03/13 06:26:41;;;;;;;63.40;30.13;;;7.50;99.90;;;;;;5071329;28;20041;-73
2024/03/13 06:31:50;;;;;;;66.97;29.95;;;7.70;99.90;;;;;;5070349;28;20044;-73
2024/03/13 06:34:17;;;;;;;66.45;28.13;;;7.70;99.90;;;;;;5072079;28;20115;-73
2024/03/13 06:36:43;;;;;;;68.28;28.42;;;7.50;99.90;;;;;;5072423;28;20045;-73
2024/03/13 06:39:11;;;;;;;67.35;29.17;;;7.70;99.90;;;;;;5070590;28;20029;-73
2024/03/13 06:41:37;;;;;;;68.53;28.83;;;7.70;99.90;;;;;;5070459;28;20067;-73
2024/03/13 06:44:03;;;;;;;81.93;31.85;;;7.70;99.90;;;;;;5072134;28;20091;-73
2024/03/13 06:46:29;;;;;;;79.65;31.10;;;7.70;99.90;;;;;;5071912;28;20032;-73
2024/03/13 06:48:55;;;;;;;71.28;31.20;;;7.70;99.90;;;;;;5071578;28;20051;-73
2024/03/13 06:51:21;;;;;;;76.53;32.70;;;7.60;99.90;;;;;;5071030;28;20044;-73
2024/03/13 06:53:46;;;;;;;78.97;30.80;;;7.70;99.90;;;;;;5071863;28;20033;-73
2024/03/13 06:56:12;;;;;;;75.13;32.53;;;7.80;99.90;;;;;;5071911;28;20087;-72
2024/03/13 06:58:38;;;;;;;77.82;30.10;;;7.70;99.90;;;;;;5071696;28;20561;-73
2024/03/13 07:01:12;;;;;;;75.32;28.58;;;7.70;99.90;;;;;;5070440;28;20040;-73
2024/03/13 07:03:39;;;;;;;74.28;31.30;;;7.90;99.90;;;;;;5071406;28;20129;-73
2024/03/13 07:06:05;;;;;;;74.25;30.00;;;7.90;99.90;;;;;;5071859;28;20171;-73
2024/03/13 07:08:31;;;;;;;75.72;30.45;;;7.80;99.90;;;;;;5071836;28;20055;-73
2024/03/13 07:10:59;;;;;;;78.75;31.92;;;7.80;99.90;;;;;;5070435;28;20043;-73
2024/03/13 07:13:24;;;;;;;72.20;29.92;;;7.90;99.90;;;;;;5069829;28;20520;-73
2024/03/13 07:15:50;;;;;;;75.43;32.80;;;7.80;99.90;;;;;;5070249;28;20056;-73
2024/03/13 07:18:16;;;;;;;71.47;29.98;;;8.10;99.90;;;;;;5071789;28;20040;-73
2024/03/13 07:20:41;;;;;;;71.97;32.78;;;8.00;99.90;;;;;;5071492;28;20407;-73
2024/03/13 07:23:08;;;;;;;75.30;31.15;;;8.00;99.90;;;;;;5069553;28;20553;-73
2024/03/13 07:25:35;;;;;;;76.45;29.17;;;8.10;99.90;;;;;;5076803;28;20032;-73
2024/03/13 07:28:00;;;;;;;83.72;30.55;;;8.10;99.90;;;;;;5079971;28;20412;-73
2024/03/13 07:30:27;;;;;;;70.43;29.85;;;8.10;99.90;;;;;;5078814;28;20058;-73
2024/03/13 07:32:53;;;;;;;67.82;27.60;;;8.20;99.90;;;;;;5083471;28;20044;-74
2024/03/13 07:35:19;;;;;;;71.40;31.08;;;8.20;99.90;;;;;;5090604;28;20222;-74
2024/03/13 07:37:44;;;;;;;72.38;27.80;;;8.10;99.90;;;;;;5090265;28;20028;-73
2024/03/13 07:40:10;;;;;;;62.30;26.80;;;8.40;99.90;;;;;;5089970;28;20158;-73
2024/03/13 07:42:36;;;;;;;69.97;27.65;;;8.40;99.90;;;;;;5072935;28;20119;-73
2024/03/13 07:45:02;;;;;;;63.92;26.75;;;8.50;99.90;;;;;;5091654;28;20036;-73
2024/03/13 07:47:28;;;;;;;57.83;26.58;;;8.60;99.90;;;;;;5091731;28;20438;-72
2024/03/13 07:49:54;;;;;;;56.67;24.73;;;8.40;99.90;;;;;;5091419;28;20044;-73
2024/03/13 07:52:19;;;;;;;57.38;24.15;;;8.60;99.90;;;;;;5090855;28;20040;-73
2024/03/13 07:54:45;;;;;;;53.60;23.67;;;8.60;99.90;;;;;;5091426;28;20556;-72
2024/03/13 07:57:13;;;;;;;52.85;23.23;;;8.70;99.90;;;;;;5090475;28;20585;-73
2024/03/13 07:59:40;;;;;;;54.38;23.98;;;8.70;99.90;;;;;;5090042;28;20040;-72
2024/03/13 08:02:08;;;;;;;49.90;23.73;;;8.80;99.90;;;;;;5089779;28;20381;-72
2024/03/13 08:04:36;;;;;;;60.17;25.55;;;8.70;99.90;;;;;;5093824;28;20047;-72
2024/03/13 08:07:03;;;;;;;49.67;22.85;;;8.80;99.90;;;;;;5094018;28;20039;-73
2024/03/13 08:09:29;;;;;;;53.75;24.90;;;8.80;99.90;;;;;;5094809;28;20491;-73
2024/03/13 08:11:55;;;;;;;48.88;22.95;;;8.90;99.90;;;;;;5094537;28;20085;-73
2024/03/13 08:14:22;;;;;;;48.78;23.95;;;8.70;99.90;;;;;;5093855;28;20505;-72
2024/03/13 08:16:48;;;;;;;53.83;24.50;;;8.80;99.90;;;;;;5095306;28;20046;-72
2024/03/13 08:19:13;;;;;;;45.08;22.33;;;8.80;99.90;;;;;;5093591;28;20481;-72
2024/03/13 08:21:39;;;;;;;55.70;23.70;;;9.00;99.90;;;;;;5093133;28;20063;-72
2024/03/13 08:24:06;;;;;;;54.10;21.85;;;8.80;99.90;;;;;;5087469;28;20047;-72
2024/03/13 08:26:32;;;;;;;58.65;24.20;;;8.80;99.90;;;;;;5077795;28;20068;-74
2024/03/13 08:28:58;;;;;;;48.65;22.67;;;9.00;99.90;;;;;;5074368;28;20094;-73
2024/03/13 08:31:23;;;;;;;48.33;21.75;;;9.10;99.90;;;;;;5072555;28;20075;-72
2024/03/13 08:33:49;;;;;;;52.58;22.50;;;9.10;99.90;;;;;;5074677;28;20111;-72
2024/03/13 08:36:18;;;;;;;54.83;24.08;;;8.90;99.90;;;;;;5074448;28;20119;-72
2024/03/13 08:38:44;;;;;;;45.33;21.75;;;9.00;99.90;;;;;;5074280;28;20036;-72
2024/03/13 08:41:12;;;;;;;47.60;22.70;;;9.00;99.90;;;;;;5072981;28;20097;-72
2024/03/13 08:43:38;;;;;;;55.97;24.83;;;9.20;99.90;;;;;;5073910;28;20041;-73
2024/03/13 08:46:04;;;;;;;56.30;23.83;;;9.20;99.90;;;;;;5073081;28;20048;-72
2024/03/13 08:48:29;;;;;;;50.58;21.65;;;9.30;99.90;;;;;;5074378;28;20045;-72
2024/03/13 08:50:57;;;;;;;49.55;22.20;;;9.10;99.90;;;;;;5072535;28;20047;-72
2024/03/13 08:53:24;;;;;;;49.67;21.67;;;9.20;99.90;;;;;;5073669;28;20040;-72
2024/03/13 08:55:49;;;;;;;45.30;21.02;;;9.30;99.90;;;;;;5074175;28;20525;-72
2024/03/13 08:58:15;;;;;;;50.90;21.63;;;9.30;99.90;;;;;;5073036;28;20086;-73
2024/03/13 09:00:42;;;;;;;45.30;20.33;;;9.20;99.90;;;;;;5073814;28;20036;-72
2024/03/13 09:03:09;;;;;;;47.88;22.90;;;9.40;99.90;;;;;;5080505;28;20033;-72
2024/03/13 09:05:35;;;;;;;45.88;20.42;;;9.40;99.90;;;;;;5088283;28;20035;-72
2024/03/13 09:08:02;;;;;;;44.58;21.00;;;9.60;99.90;;;;;;5093093;28;20032;-72
2024/03/13 09:10:28;;;;;;;46.40;20.17;;;9.60;99.90;;;;;;5080619;28;20461;-75
2024/03/13 09:12:54;;;;;;;47.85;22.00;;;9.70;99.90;;;;;;5067275;28;20090;-73
2024/03/13 09:15:19;;;;;;;47.55;20.63;;;9.70;99.90;;;;;;5070272;28;20423;-72
2024/03/13 09:17:45;;;;;;;42.08;18.17;;;9.70;99.90;;;;;;5073651;28;20036;-72
2024/03/13 09:20:13;;;;;;;44.65;20.25;;;9.60;99.90;;;;;;5078341;28;20032;-72
2024/03/13 09:22:41;;;;;;;40.88;19.60;;;9.70;99.90;;;;;;5080643;28;20044;-72
2024/03/13 09:25:11;;;;;;;40.63;18.15;;;9.90;99.90;;;;;;5073174;28;20036;-72
2024/03/13 09:27:40;;;;;;;35.10;16.80;;;9.90;99.90;;;;;;5073371;28;20407;-72
2024/03/13 09:30:09;;;;;;;39.13;17.98;;;10.00;99.90;;;;;;5055398;28;20059;-71
2024/03/13 09:32:35;;;;;;;40.58;17.92;;;10.10;99.90;;;;;;5071436;28;20101;-72
2024/03/13 09:35:09;;;;;;;37.20;17.73;;;9.90;99.90;;;;;;5073263;28;20033;-73
2024/03/13 09:37:36;;;;;;;42.35;18.02;;;10.00;99.90;;;;;;5071889;28;20528;-72
2024/03/13 09:40:04;;;;;;;41.88;17.70;;;10.20;99.90;;;;;;5071632;28;20462;-72
2024/03/13 09:42:36;;;;;;;38.35;16.23;;;10.00;99.90;;;;;;5072339;28;20062;-72
2024/03/13 09:45:02;;;;;;;38.50;15.82;;;10.10;99.90;;;;;;5072944;28;20531;-73
2024/03/13 09:47:30;;;;;;;34.50;16.15;;;10.30;99.90;;;;;;5071679;28;20043;-72
2024/03/13 09:49:58;;;;;;;36.38;17.33;;;10.30;99.90;;;;;;5071342;28;20512;-72
2024/03/13 09:52:28;;;;;;;34.50;15.55;;;10.40;99.90;;;;;;5070777;28;20040;-71
2024/03/13 09:54:58;;;;;;;32.80;14.82;;;10.20;99.90;;;;;;5064871;28;20040;-71
2024/03/13 09:57:25;;;;;;;37.08;16.27;;;10.30;99.90;;;;;;5071458;28;20492;-72
2024/03/13 09:59:56;;;;;;;35.40;16.48;;;10.50;99.90;;;;;;5071482;28;20044;-71
2024/03/13 10:02:27;;;;;;;36.95;16.35;;;10.40;99.90;;;;;;5070819;28;20117;-71
2024/03/13 10:04:53;;;;;;;35.63;17.33;;;10.60;99.90;;;;;;5071575;28;20408;-72
2024/03/13 10:07:20;;;;;;;34.70;16.40;;;10.50;99.90;;;;;;5071158;28;20170;-71
2024/03/13 10:09:47;;;;;;;36.92;17.05;;;10.50;99.90;;;;;;5071009;28;20036;-72
2024/03/13 10:12:15;;;;;;;32.53;15.65;;;10.80;99.90;;;;;;5071823;28;20040;-72
2024/03/13 10:14:43;;;;;;;31.80;16.40;;;10.70;99.90;;;;;;5072489;28;20098;-72
2024/03/13 10:17:13;;;;;;;34.35;15.85;;;10.80;99.90;;;;;;5070833;28;20040;-72
2024/03/13 10:19:44;;;;;;;37.08;16.38;;;10.90;99.90;;;;;;5070835;28;20040;-72
2024/03/13 10:22:11;;;;;;;35.38;16.05;;;10.70;99.90;;;;;;5070199;28;20045;-71
2024/03/13 10:24:41;;;;;;;42.28;17.38;;;10.80;99.90;;;;;;5070944;28;20132;-74
2024/03/13 10:27:09;;;;;;;35.30;16.20;;;10.90;99.90;;;;;;5070633;28;20083;-74
2024/03/13 10:29:35;;;;;;;35.53;16.35;;;10.90;99.90;;;;;;5070492;28;20044;-74
2024/03/13 10:32:04;;;;;;;37.17;16.88;;;10.70;99.90;;;;;;5061850;28;20094;-72
2024/03/13 10:34:31;;;;;;;40.53;17.83;;;10.90;99.90;;;;;;5072200;28;20044;-74
2024/03/13 10:36:58;;;;;;;42.30;18.17;;;10.80;99.90;;;;;;5070636;28;20044;-74
2024/03/13 10:39:26;;;;;;;39.30;18.08;;;10.80;99.90;;;;;;5070566;28;20154;-74
2024/03/13 10:41:52;;;;;;;42.42;19.73;;;10.70;99.90;;;;;;5071343;28;20072;-74
2024/03/13 10:44:18;;;;;;;39.22;19.08;;;10.70;99.90;;;;;;5078587;28;20090;-74
2024/03/13 10:46:44;;;;;;;42.85;19.25;;;10.80;99.90;;;;;;5081983;28;20540;-73
2024/03/13 10:49:16;;;;;;;46.05;19.27;;;10.80;99.90;;;;;;5081547;28;20079;-73
2024/03/13 10:51:41;;;;;;;41.22;19.80;;;10.80;99.90;;;;;;5077897;28;20178;-73
2024/03/13 10:54:11;;;;;;;40.67;18.65;;;11.00;99.90;;;;;;5070356;28;20531;-73
2024/03/13 10:56:37;;;;;;;38.25;17.20;;;10.90;99.90;;;;;;5070258;28;20075;-73
2024/03/13 10:59:03;;;;;;;37.67;16.95;;;11.00;99.90;;;;;;5071528;28;20075;-73
2024/03/13 11:01:30;;;;;;;38.50;17.67;;;11.10;99.90;;;;;;5069493;28;20511;-73
2024/03/13 11:04:02;;;;;;;41.25;17.38;;;11.30;99.90;;;;;;5071320;28;20047;-73
2024/03/13 11:06:32;;;;;;;35.90;16.67;;;11.30;99.90;;;;;;5069996;28;20081;-74
2024/03/13 11:09:00;;;;;;;38.10;16.05;;;11.30;99.90;;;;;;5071115;28;20074;-74
2024/03/13 11:11:26;;;;;;;40.40;18.35;;;11.30;99.90;;;;;;5069480;28;20044;-74
2024/03/13 11:13:55;;;;;;;33.83;16.75;;;11.30;99.90;;;;;;5070126;28;20051;-74
2024/03/13 11:16:23;;;;;;;33.30;15.93;;;11.10;99.90;;;;;;5053309;28;20101;-74
2024/03/13 11:18:54;;;;;;;29.77;14.60;;;11.20;99.90;;;;;;5070948;28;20037;-74
2024/03/13 11:21:39;;;;;;;30.73;15.57;;;11.40;99.90;;;;;;5069284;28;20036;-74
2024/03/13 11:24:07;;;;;;;32.05;14.65;;;11.20;99.90;;;;;;5077248;22;20056;-68
2024/03/13 11:26:38;;;;;;;34.22;15.60;;;11.20;99.90;;;;;;5070980;28;20471;-68
2024/03/13 11:29:11;;;;;;;36.88;14.80;;;11.30;99.90;;;;;;5069628;28;20040;-67
2024/03/13 11:31:42;;;;;;;28.95;14.10;;;11.20;99.90;;;;;;5071100;28;20044;-68
2024/03/13 11:34:09;;;;;;;27.70;14.55;;;11.40;99.90;;;;;;5071153;28;20055;-67
2024/03/13 11:36:35;;;;;;;25.27;14.10;;;11.20;99.90;;;;;;5071050;28;20044;-68
2024/03/13 11:39:03;;;;;;;29.45;12.98;;;11.50;99.90;;;;;;5070368;28;20117;-67
2024/03/13 11:41:29;;;;;;;28.20;14.43;;;11.30;99.90;;;;;;5070876;28;20036;-68
2024/03/13 11:43:56;;;;;;;32.13;15.65;;;11.30;99.90;;;;;;5071188;28;20183;-68
2024/03/13 11:46:23;;;;;;;31.70;13.82;;;11.30;99.90;;;;;;5070604;28;20111;-70
2024/03/13 11:48:49;;;;;;;28.35;14.15;;;11.40;99.90;;;;;;5069838;28;20048;-71
2024/03/13 11:51:15;;;;;;;33.15;14.32;;;11.30;99.90;;;;;;5070948;28;20101;-70
2024/03/13 11:53:42;;;;;;;27.13;14.32;;;11.50;99.90;;;;;;5070843;28;20496;-70
2024/03/13 11:56:13;;;;;;;25.48;13.38;;;11.60;99.90;;;;;;5071023;28;20036;-71
2024/03/13 11:58:40;;;;;;;26.58;14.45;;;11.40;99.90;;;;;;5070996;28;20040;-71
2024/03/13 12:01:07;;;;;;;27.40;14.25;;;11.50;99.90;;;;;;5070955;28;20040;-70
2024/03/13 12:03:42;;;;;;;25.08;13.18;;;11.40;99.90;;;;;;5069281;28;20048;-71
2024/03/13 12:06:30;;;;;;;24.10;12.75;;;11.30;99.90;;;;;;5070962;28;20098;-69
2024/03/13 12:08:56;;;;;;;27.92;13.20;;;11.40;99.90;;;;;;5069489;28;20045;-69
2024/03/13 12:11:21;;;;;;;25.45;12.10;;;11.60;99.90;;;;;;5070344;28;20040;-68
2024/03/13 12:13:47;;;;;;;28.33;12.73;;;11.50;99.90;;;;;;5069585;28;20039;-68
2024/03/13 12:16:15;;;;;;;35.83;14.68;;;11.50;99.90;;;;;;5070478;28;20124;-68
2024/03/13 12:18:52;;;;;;;31.85;13.77;;;11.60;99.90;;;;;;5073720;28;20036;-70
2024/03/13 12:21:19;;;;;;;27.92;13.45;;;11.60;99.90;;;;;;5088059;28;20074;-69
2024/03/13 12:23:45;;;;;;;32.05;14.10;;;11.50;99.90;;;;;;5082199;28;20516;-69
2024/03/13 12:26:11;;;;;;;36.47;15.35;;;11.50;99.90;;;;;;5065916;28;20086;-69
2024/03/13 12:28:37;;;;;;;37.80;15.65;;;11.70;99.90;;;;;;5089382;28;20177;-69
2024/03/13 12:31:04;;;;;;;29.70;14.48;;;11.50;99.90;;;;;;5073581;28;20058;-69
2024/03/13 12:33:33;;;;;;;31.83;14.65;;;11.60;99.90;;;;;;5062231;28;20032;-69
2024/03/13 12:36:00;;;;;;;37.45;15.23;;;11.70;99.90;;;;;;5070740;28;20465;-69
2024/03/13 12:38:39;;;;;;;31.85;15.57;;;11.60;99.90;;;;;;5071923;28;20043;-69
2024/03/13 12:41:07;;;;;;;35.30;16.23;;;11.70;99.90;;;;;;5071098;28;20052;-69
2024/03/13 12:43:33;;;;;;;31.05;14.32;;;11.60;99.90;;;;;;5068421;28;20594;-69
2024/03/13 12:46:02;;;;;;;27.65;15.75;;;11.70;99.90;;;;;;5068980;28;20043;-69
2024/03/13 12:48:32;;;;;;;29.63;14.93;;;11.60;99.90;;;;;;5068067;28;20411;-69
2024/03/13 12:50:59;;;;;;;27.65;13.85;;;11.90;99.90;;;;;;5072994;28;20090;-69
2024/03/13 12:53:33;;;;;;;40.47;14.63;;;11.80;99.90;;;;;;5073330;28;20036;-69